Time;durP1;ratioP1;P1;durP2;ratioP2;P2;SDS_P1;SDS_P2;PMS_P1;PMS_P2;Temp;Humidity;BMP_temperature;BMP_pressure;BME280_temperature;BME280_humidity;BME280_pressure;Samples;Min_cycle;Max_cycle;Signal;HPM_P1;HPM_P2
2022/04/02 00:01:00;;;;;;;15.10;12.17;;;;;;;13.08;71.97;99534.13;2569731;23;20292;-71
2022/04/02 00:02:01;;;;;;;12.80;11.50;;;;;;;13.07;71.87;99543.69;2569311;23;20152;-71
2022/04/02 00:03:01;;;;;;;15.37;10.87;;;;;;;13.08;71.65;99538.91;2569690;23;20610;-71
2022/04/02 00:04:02;;;;;;;12.10;10.77;;;;;;;13.02;71.55;99529.69;2569051;23;20493;-71
2022/04/02 00:05:02;;;;;;;15.20;11.63;;;;;;;12.44;71.44;99444.03;2569576;23;20154;-71
2022/04/02 00:06:03;;;;;;;15.73;12.40;;;;;;;12.95;71.78;99525.22;2569927;23;20622;-71
2022/04/02 00:07:04;;;;;;;13.87;12.37;;;;;;;12.94;72.07;99526.47;2569836;23;20550;-71
2022/04/02 00:08:05;;;;;;;14.17;12.10;;;;;;;11.92;71.69;99375.22;2569795;23;20571;-71
2022/04/02 00:09:05;;;;;;;14.33;11.87;;;;;;;12.71;71.73;99490.34;2569723;23;20156;-71
2022/04/02 00:10:07;;;;;;;15.77;11.37;;;;;;;12.96;71.93;99543.47;2569926;23;20149;-71
2022/04/02 00:11:07;;;;;;;13.40;11.30;;;;;;;13.01;72.02;99542.06;2569506;23;20283;-71
2022/04/02 00:12:08;;;;;;;13.53;11.30;;;;;;;12.71;72.05;99493.13;2569068;23;20417;-71
2022/04/02 00:13:09;;;;;;;12.50;11.20;;;;;;;13.05;71.80;99537.84;2569913;23;20159;-71
2022/04/02 00:14:09;;;;;;;12.07;10.87;;;;;;;13.07;71.54;99537.38;2569136;23;20152;-71
2022/04/02 00:15:10;;;;;;;12.73;11.17;;;;;;;12.89;71.39;99512.44;2569737;23;20229;-71
2022/04/02 00:16:11;;;;;;;15.17;11.90;;;;;;;13.04;71.38;99541.88;2569898;23;20163;-71
2022/04/02 00:17:11;;;;;;;12.60;10.70;;;;;;;13.07;71.28;99546.47;2556039;23;20221;-71
2022/04/02 00:18:12;;;;;;;15.20;11.87;;;;;;;13.00;71.21;99521.81;2556764;23;20209;-71
2022/04/02 00:19:12;;;;;;;12.50;10.97;;;;;;;13.07;71.17;99540.16;2569495;23;20555;-71
2022/04/02 00:20:13;;;;;;;14.87;11.67;;;;;;;13.06;71.08;99538.63;2569890;23;20157;-71
2022/04/02 00:21:13;;;;;;;12.80;11.50;;;;;;;12.94;71.35;99523.69;2569409;23;20152;-71
2022/04/02 00:22:14;;;;;;;12.70;11.37;;;;;;;13.05;71.19;99537.06;2569386;23;20187;-71
2022/04/02 00:24:34;;;;;;;12.93;11.10;;;;;;;12.94;71.23;99529.25;2569797;23;20355;-71
2022/04/02 00:25:34;;;;;;;13.13;11.47;;;;;;;12.97;71.46;99536.66;2569558;23;20416;-71
2022/04/02 00:26:35;;;;;;;13.47;11.70;;;;;;;12.79;71.28;99517.31;2569691;23;20152;-71
2022/04/02 00:27:36;;;;;;;12.10;10.90;;;;;;;12.88;71.51;99533.94;2569845;23;20152;-71
2022/04/02 00:28:38;;;;;;;12.87;11.27;;;;;;;12.00;71.65;99415.28;2569704;23;20150;-71
2022/04/02 00:29:40;;;;;;;14.17;12.10;;;;;;;11.79;71.85;99390.56;2569765;23;20172;-71
2022/04/02 00:30:41;;;;;;;13.03;11.60;;;;;;;12.85;71.94;99540.44;2556363;23;20464;-71
2022/04/02 00:31:41;;;;;;;15.67;12.03;;;;;;;12.11;71.96;99423.88;2543558;23;20434;-71
2022/04/02 00:32:42;;;;;;;13.03;11.63;;;;;;;12.38;71.72;99450.72;2556250;23;20150;-71
2022/04/02 00:33:45;;;;;;;14.07;11.77;;;;;;;12.94;71.72;99540.38;2569133;23;20600;-71
2022/04/02 00:34:47;;;;;;;13.07;10.90;;;;;;;12.94;71.61;99542.38;2556303;23;20161;-71
2022/04/02 00:35:47;;;;;;;15.03;12.23;;;;;;;12.96;71.66;99542.72;2556716;23;20378;-71
2022/04/02 00:36:48;;;;;;;13.33;11.47;;;;;;;11.80;71.43;99364.34;2569622;23;20395;-71
2022/04/02 00:37:49;;;;;;;13.43;11.93;;;;;;;12.97;71.43;99542.22;2569758;23;20193;-71
2022/04/02 00:38:50;;;;;;;13.33;11.37;;;;;;;12.98;70.98;99541.00;2569479;23;20185;-71
2022/04/02 00:39:50;;;;;;;13.73;11.30;;;;;;;12.98;70.99;99543.78;2569771;23;20558;-71
2022/04/02 00:40:51;;;;;;;14.20;11.77;;;;;;;12.99;70.86;99534.19;2569372;23;20381;-71
2022/04/02 00:41:52;;;;;;;14.67;11.47;;;;;;;12.92;71.15;99545.63;2569014;23;20166;-71
2022/04/02 00:42:52;;;;;;;14.30;12.10;;;;;;;12.81;71.46;99519.63;2569598;23;20223;-71
2022/04/02 00:43:59;;;;;;;14.00;11.70;;;;;;;12.78;71.07;99515.78;2569274;23;20177;-71
2022/04/02 00:44:59;;;;;;;13.30;11.13;;;;;;;12.84;71.26;99524.22;2569278;23;20648;-71
2022/04/02 00:46:05;;;;;;;11.17;7.93;;;;;;;12.88;71.08;99539.50;2569749;23;20706;-71
2022/04/02 00:47:05;;;;;;;12.83;11.43;;;;;;;12.38;70.94;99461.81;2569179;23;20138;-71
2022/04/02 00:48:06;;;;;;;11.93;10.70;;;;;;;12.86;71.19;99532.88;2568857;23;20435;-71
2022/04/02 00:49:09;;;;;;;10.53;9.37;;;;;;;12.89;71.10;99543.81;2569723;23;20225;-71
2022/04/02 00:50:10;;;;;;;12.87;11.10;;;;;;;12.86;71.49;99535.66;2569721;23;20657;-71
2022/04/02 00:51:15;;;;;;;14.20;10.83;;;;;;;12.86;71.45;99541.97;2569623;23;20438;-71
2022/04/02 00:52:16;;;;;;;11.00;9.90;;;;;;;12.86;71.28;99547.53;2555892;23;20511;-71
2022/04/02 00:53:18;;;;;;;14.37;11.23;;;;;;;12.88;71.51;99550.63;2555873;23;20464;-71
2022/04/02 00:54:20;;;;;;;12.23;9.77;;;;;;;12.16;71.06;99458.56;2569656;23;20557;-71
2022/04/02 00:55:20;;;;;;;12.27;10.97;;;;;;;12.89;71.56;99545.81;2569505;23;20376;-71
2022/04/02 00:56:21;;;;;;;13.50;11.57;;;;;;;12.91;71.73;99546.88;2569734;23;20939;-71
2022/04/02 00:57:24;;;;;;;12.40;10.13;;;;;;;12.91;71.14;99540.56;2569499;23;20598;-71
2022/04/02 00:58:25;;;;;;;9.43;8.43;;;;;;;12.41;71.03;99466.44;2569869;23;20856;-71
2022/04/02 00:59:26;;;;;;;12.77;9.50;;;;;;;12.98;71.16;99548.56;2569296;23;20401;-71
2022/04/02 01:00:27;;;;;;;8.53;5.33;;;;;;;12.94;70.10;99545.16;2569811;23;20373;-71
2022/04/02 01:01:27;;;;;;;7.93;6.17;;;;;;;12.92;69.65;99542.84;2569019;23;20497;-71
2022/04/02 01:02:28;;;;;;;7.93;5.27;;;;;;;11.95;68.46;99395.72;2569318;23;20166;-71
2022/04/02 01:03:29;;;;;;;6.20;4.90;;;;;;;12.98;68.29;99543.78;2569016;23;20624;-71
2022/04/02 01:04:29;;;;;;;6.80;3.80;;;;;;;12.86;67.17;99530.84;2569595;23;20230;-71
2022/04/02 01:05:30;;;;;;;10.57;7.93;;;;;;;13.01;68.24;99536.50;2569575;23;20151;-71
2022/04/02 01:06:31;;;;;;;8.27;5.23;;;;;;;13.10;67.68;99553.09;2569726;23;20581;-71
2022/04/02 01:07:32;;;;;;;5.77;4.50;;;;;;;12.71;67.60;99485.53;2556376;23;20163;-71
2022/04/02 01:08:33;;;;;;;4.37;3.10;;;;;;;13.15;67.36;99553.22;2556063;23;20403;-71
2022/04/02 01:09:33;;;;;;;6.60;4.63;;;;;;;13.15;67.02;99555.22;2569619;23;20144;-71
2022/04/02 01:10:41;;;;;;;4.83;2.70;;;;;;;13.10;66.44;99553.88;2569650;23;20148;-70
2022/04/02 01:11:43;;;;;;;5.17;3.17;;;;;;;13.14;66.62;99557.25;2568891;23;20679;-71
2022/04/02 01:12:44;;;;;;;5.87;3.30;;;;;;;12.51;65.73;99462.38;2569388;23;20895;-71
2022/04/02 01:13:45;;;;;;;6.37;3.90;;;;;;;12.87;66.19;99507.34;2569065;23;20862;-71
2022/04/02 01:14:45;;;;;;;5.60;4.00;;;;;;;13.20;65.98;99554.56;2569335;23;20907;-71
2022/04/02 01:15:46;;;;;;;4.30;2.60;;;;;;;13.22;65.20;99557.66;2556477;23;20164;-71
2022/04/02 01:16:46;;;;;;;5.60;2.63;;;;;;;12.69;64.83;99478.91;2556279;23;20258;-71
2022/04/02 01:17:47;;;;;;;3.60;1.83;;;;;;;13.21;63.08;99542.97;2569657;23;20189;-71
2022/04/02 01:18:47;;;;;;;2.77;1.77;;;;;;;13.15;62.96;99536.53;2569470;23;20159;-71
2022/04/02 01:19:48;;;;;;;3.03;2.00;;;;;;;13.03;62.45;99520.88;2569807;23;20636;-71
2022/04/02 01:20:49;;;;;;;3.70;1.80;;;;;;;13.12;62.81;99540.25;2569069;23;20632;-70
2022/04/02 01:21:50;;;;;;;4.73;2.53;;;;;;;13.37;62.59;99572.38;2568853;23;20807;-71
2022/04/02 01:22:50;;;;;;;4.27;2.53;;;;;;;13.43;63.53;99570.47;2569242;23;20159;-71
2022/04/02 01:23:51;;;;;;;6.10;2.50;;;;;;;13.45;63.99;99574.31;2568982;23;20155;-71
2022/04/02 01:24:51;;;;;;;4.03;2.60;;;;;;;13.45;63.67;99570.75;2556250;23;20163;-71
2022/04/02 01:25:52;;;;;;;3.67;1.83;;;;;;;13.48;63.71;99575.38;2556409;23;20242;-71
2022/04/02 01:26:52;;;;;;;2.77;1.60;;;;;;;13.49;63.19;99576.91;2569455;23;20182;-71
2022/04/02 01:27:53;;;;;;;1.93;1.40;;;;;;;13.51;62.42;99586.31;2569671;23;20158;-71
2022/04/02 01:28:59;;;;;;;1.83;1.33;;;;;;;13.40;61.99;99558.28;2569585;23;20614;-71
2022/04/02 01:29:59;;;;;;;1.83;1.00;;;;;;;13.53;61.62;99574.72;2569459;23;20160;-71
2022/04/02 01:31:05;;;;;;;3.63;1.70;;;;;;;13.22;62.42;99538.94;2569432;23;20421;-71
2022/04/02 01:32:06;;;;;;;3.93;1.60;;;;;;;13.06;62.96;99500.44;2569000;23;20183;-71
2022/04/02 01:33:07;;;;;;;2.17;0.90;;;;;;;13.47;62.13;99565.50;2569496;23;20448;-71
2022/04/02 01:34:07;;;;;;;2.83;1.20;;;;;;;13.65;62.46;99588.38;2568972;23;20425;-71
2022/04/02 01:35:09;;;;;;;3.67;2.00;;;;;;;13.64;63.48;99589.63;2569384;23;20409;-71
2022/04/02 01:36:11;;;;;;;1.73;0.97;;;;;;;13.50;62.71;99575.66;2569540;23;20153;-71
2022/04/02 01:37:18;;;;;;;2.87;1.77;;;;;;;13.63;62.85;99592.88;2556116;23;20393;-71
2022/04/02 01:38:18;;;;;;;2.40;0.70;;;;;;;13.63;61.97;99590.84;2557852;23;20710;-71
2022/04/02 01:39:19;;;;;;;3.20;0.90;;;;;;;13.55;60.47;99577.78;2569366;23;20406;-71
2022/04/02 01:40:20;;;;;;;1.20;0.70;;;;;;;13.66;60.88;99592.69;2569757;23;20501;-71
2022/04/02 01:41:21;;;;;;;2.37;0.77;;;;;;;13.56;59.81;99591.22;2569214;23;20512;-71
2022/04/02 01:42:24;;;;;;;2.27;0.70;;;;;;;13.62;60.28;99591.34;2568975;23;20426;-71
2022/04/02 01:43:25;;;;;;;1.50;0.60;;;;;;;13.12;59.63;99522.81;2568660;23;20219;-71
2022/04/02 01:44:25;;;;;;;2.77;0.80;;;;;;;13.19;59.71;99520.44;2569415;23;20390;-70
2022/04/02 01:45:26;;;;;;;2.00;0.80;;;;;;;13.73;59.74;99595.09;2569313;23;20527;-71
2022/04/02 01:46:27;;;;;;;1.10;0.67;;;;;;;13.75;59.18;99600.97;2569725;23;20156;-71
2022/04/02 01:47:27;;;;;;;1.67;0.67;;;;;;;13.78;59.02;99594.44;2569416;23;20152;-71
2022/04/02 01:48:30;;;;;;;2.53;0.80;;;;;;;13.83;59.87;99593.75;2569557;23;20191;-71
2022/04/02 01:49:30;;;;;;;1.93;0.60;;;;;;;13.86;58.80;99590.03;2569750;23;20186;-71
2022/04/02 01:50:32;;;;;;;3.70;0.77;;;;;;;13.92;59.31;99598.47;2569746;23;20380;-71
2022/04/02 01:51:32;;;;;;;3.60;0.93;;;;;;;13.94;60.12;99598.78;2568693;23;20215;-71
2022/04/02 01:52:33;;;;;;;1.93;0.80;;;;;;;13.83;60.78;99573.50;2569448;23;20382;-71
2022/04/02 01:53:34;;;;;;;1.83;0.60;;;;;;;14.00;58.90;99600.41;2568706;23;20177;-71
2022/04/02 01:54:35;;;;;;;2.17;0.60;;;;;;;13.94;57.62;99605.09;2569581;23;20149;-71
2022/04/02 01:55:35;;;;;;;1.50;0.70;;;;;;;14.01;59.02;99601.16;2569517;23;20380;-71
2022/04/02 01:56:36;;;;;;;1.23;0.53;;;;;;;12.99;57.73;99436.88;2569448;23;20161;-71
2022/04/02 01:57:36;;;;;;;1.20;0.60;;;;;;;14.00;57.48;99603.19;2569539;23;20150;-71
2022/04/02 01:58:37;;;;;;;2.70;0.60;;;;;;;13.54;57.42;99557.56;2569484;23;20145;-71
2022/04/02 01:59:40;;;;;;;2.03;0.60;;;;;;;14.04;58.18;99598.19;2569452;23;20498;-71
2022/04/02 02:00:40;;;;;;;2.13;0.50;;;;;;;13.54;56.96;99518.59;2569546;23;20203;-71
2022/04/02 02:01:42;;;;;;;1.70;0.70;;;;;;;14.10;57.33;99606.66;2568663;23;20380;-71
2022/04/02 02:02:43;;;;;;;2.23;0.70;;;;;;;14.10;57.34;99601.84;2569474;23;20481;-71
2022/04/02 02:03:44;;;;;;;1.13;0.50;;;;;;;14.09;56.77;99605.13;2568897;23;20453;-71
2022/04/02 02:04:44;;;;;;;2.23;0.80;;;;;;;14.01;57.24;99603.94;2569347;23;20154;-71
2022/04/02 02:05:45;;;;;;;1.33;0.77;;;;;;;13.23;57.49;99484.84;2569419;23;20383;-71
2022/04/02 02:06:46;;;;;;;2.80;0.70;;;;;;;14.08;56.81;99615.47;2569387;23;20163;-71
2022/04/02 02:07:50;;;;;;;1.73;0.67;;;;;;;14.07;57.15;99619.53;2569724;23;20180;-71
2022/04/02 02:08:51;;;;;;;1.83;0.50;;;;;;;13.34;57.04;99512.88;2569352;23;20153;-71
2022/04/02 02:09:57;;;;;;;2.10;0.63;;;;;;;13.93;57.00;99605.59;2569522;23;20459;-71
2022/04/02 02:10:58;;;;;;;2.67;0.80;;;;;;;14.03;57.15;99618.19;2569398;23;20144;-70
2022/04/02 02:11:58;;;;;;;3.17;0.80;;;;;;;12.72;57.57;99430.72;2568700;23;20426;-71
2022/04/02 02:12:59;;;;;;;1.43;0.60;;;;;;;13.94;57.14;99624.59;2569454;23;20508;-71
2022/04/02 02:14:00;;;;;;;2.60;0.80;;;;;;;13.95;57.43;99623.38;2568849;23;20183;-71
2022/04/02 02:15:01;;;;;;;2.30;0.90;;;;;;;13.31;56.91;99513.06;2569397;23;20385;-71
2022/04/02 02:16:01;;;;;;;2.20;0.70;;;;;;;13.90;57.65;99623.25;2569431;23;20213;-71
2022/04/02 02:17:02;;;;;;;1.80;0.70;;;;;;;13.96;57.23;99618.53;2569456;23;20192;-71
2022/04/02 02:18:03;;;;;;;4.93;0.77;;;;;;;13.94;56.93;99623.84;2569230;23;20550;-71
2022/04/02 02:19:03;;;;;;;2.30;0.70;;;;;;;13.37;56.99;99536.22;2569411;23;20191;-70
2022/04/02 02:20:04;;;;;;;3.67;0.80;;;;;;;13.90;57.11;99623.25;2569517;23;20155;-70
2022/04/02 02:21:07;;;;;;;2.17;0.80;;;;;;;13.73;57.31;99606.22;2569822;23;20477;-71
2022/04/02 02:22:08;;;;;;;1.90;0.60;;;;;;;13.85;57.28;99621.91;2569736;23;20151;-71
2022/04/02 02:23:09;;;;;;;4.13;0.80;;;;;;;13.49;56.86;99572.13;2570134;23;20381;-71
2022/04/02 02:24:09;;;;;;;2.13;0.70;;;;;;;13.89;56.50;99616.91;2569379;23;20388;-71
2022/04/02 02:25:12;;;;;;;1.70;0.67;;;;;;;13.93;56.71;99613.94;2556772;23;20164;-71
2022/04/02 02:26:12;;;;;;;2.60;0.80;;;;;;;13.85;56.81;99621.91;2557421;23;20155;-71
2022/04/02 02:27:13;;;;;;;1.60;0.63;;;;;;;13.81;56.79;99621.31;2569979;23;20478;-71
2022/04/02 02:28:16;;;;;;;2.93;0.80;;;;;;;13.81;56.91;99626.91;2570342;23;20161;-70
2022/04/02 02:29:17;;;;;;;3.10;0.90;;;;;;;13.93;56.27;99633.44;2570152;23;20150;-72
2022/04/02 02:30:18;;;;;;;2.10;0.90;;;;;;;13.93;56.35;99633.44;2570363;23;20425;-70
2022/04/02 02:31:18;;;;;;;1.20;0.77;;;;;;;13.68;56.04;99622.84;2570002;23;20550;-71
2022/04/02 02:32:19;;;;;;;3.13;0.90;;;;;;;13.62;56.27;99603.22;2569782;23;20150;-70
2022/04/02 02:35:58;;;;;;;2.73;0.73;;;;;;;13.85;56.45;99637.84;2570278;23;20746;-70
2022/04/02 02:36:58;;;;;;;3.50;0.80;;;;;;;13.89;56.74;99633.59;2570225;23;20395;-71
2022/04/02 02:38:10;;;;;;;2.27;0.80;;;;;;;13.89;56.21;99635.66;2570314;23;20236;-71
2022/04/02 02:39:11;;;;;;;3.27;1.00;;;;;;;13.89;56.16;99638.44;2570179;23;20139;-70
2022/04/02 02:40:12;;;;;;;4.13;1.00;;;;;;;13.83;56.52;99638.31;2570218;23;20391;-72
2022/04/02 02:41:12;;;;;;;2.43;1.00;;;;;;;13.87;56.64;99638.13;2569648;23;20148;-72
2022/04/02 02:42:13;;;;;;;1.90;0.73;;;;;;;13.31;56.07;99550.00;2556317;23;20161;-72
2022/04/02 02:43:14;;;;;;;2.20;0.77;;;;;;;13.84;56.36;99641.88;2544242;23;20164;-71
2022/04/02 02:44:14;;;;;;;1.63;0.60;;;;;;;13.03;56.11;99523.66;2556824;23;20175;-72
2022/04/02 02:45:15;;;;;;;1.10;0.70;;;;;;;13.84;56.22;99639.84;2569544;23;20608;-71
2022/04/02 02:46:18;;;;;;;2.87;0.77;;;;;;;13.89;56.29;99641.22;2570239;23;20155;-71
2022/04/02 02:47:19;;;;;;;2.03;0.73;;;;;;;13.58;56.06;99599.09;2569807;23;20160;-71
2022/04/02 02:48:19;;;;;;;1.60;0.50;;;;;;;13.79;56.08;99628.63;2570120;23;20470;-71
2022/04/02 02:49:20;;;;;;;2.17;0.90;;;;;;;12.79;55.79;99489.50;2569995;23;20151;-71
2022/04/02 02:50:21;;;;;;;2.07;0.90;;;;;;;13.07;55.73;99524.22;2570333;23;20480;-70
2022/04/02 02:51:21;;;;;;;3.83;0.60;;;;;;;13.85;55.87;99646.19;2569895;23;20596;-71
2022/04/02 02:52:22;;;;;;;2.53;0.80;;;;;;;13.74;56.27;99629.28;2569603;23;20373;-71
2022/04/02 02:53:23;;;;;;;2.50;0.90;;;;;;;13.83;56.76;99646.66;2569369;23;20148;-71
2022/04/02 02:54:23;;;;;;;1.83;0.70;;;;;;;13.82;56.29;99645.13;2570072;23;20150;-72
2022/04/02 02:55:24;;;;;;;2.30;0.97;;;;;;;13.84;55.99;99648.19;2569925;23;20147;-71
2022/04/02 02:56:24;;;;;;;1.90;0.87;;;;;;;13.83;56.02;99645.91;2570307;23;20213;-72
2022/04/02 02:57:25;;;;;;;1.87;0.73;;;;;;;13.45;55.99;99596.59;2569919;23;20237;-71
2022/04/02 02:58:25;;;;;;;2.07;0.70;;;;;;;13.75;55.97;99653.88;2570238;23;20182;-71
2022/04/02 02:59:26;;;;;;;1.33;0.70;;;;;;;13.67;56.37;99637.97;2570243;23;20151;-71
2022/04/02 03:00:26;;;;;;;1.87;0.70;;;;;;;13.83;56.11;99657.81;2569898;23;20145;-71
2022/04/02 03:01:27;;;;;;;2.23;0.70;;;;;;;13.80;56.27;99658.78;2569608;23;20148;-70
2022/04/02 03:02:27;;;;;;;2.20;0.60;;;;;;;13.81;56.09;99659.53;2569705;23;20152;-71
2022/04/02 03:03:28;;;;;;;3.13;0.90;;;;;;;13.83;56.25;99662.63;2569468;23;20149;-71
2022/04/02 03:04:30;;;;;;;1.23;0.70;;;;;;;13.78;55.87;99661.25;2570043;23;20154;-71
2022/04/02 03:05:31;;;;;;;1.93;0.70;;;;;;;13.74;56.12;99659.91;2570065;23;20158;-72
2022/04/02 03:06:31;;;;;;;2.23;0.70;;;;;;;13.78;56.39;99663.28;2570017;23;20398;-70
2022/04/02 03:07:36;;;;;;;1.40;0.80;;;;;;;13.80;56.33;99661.56;2570083;23;20257;-71
2022/04/02 03:08:37;;;;;;;3.13;0.80;;;;;;;13.80;55.80;99661.56;2569981;23;20155;-70
2022/04/02 03:09:37;;;;;;;2.93;0.87;;;;;;;13.81;56.11;99657.53;2569911;23;20374;-71
2022/04/02 03:10:40;;;;;;;3.03;0.70;;;;;;;13.81;56.09;99662.31;2569997;23;20200;-71
2022/04/02 03:11:41;;;;;;;3.30;0.70;;;;;;;13.85;55.52;99668.47;2569406;23;20183;-71
2022/04/02 03:12:42;;;;;;;2.43;0.70;;;;;;;13.79;56.15;99667.59;2556670;23;20418;-71
2022/04/02 03:13:42;;;;;;;1.33;0.70;;;;;;;13.77;56.10;99670.84;2556315;23;20414;-71
2022/04/02 03:14:43;;;;;;;2.07;0.80;;;;;;;13.73;55.78;99663.94;2569818;23;20153;-70
2022/04/02 03:15:43;;;;;;;2.17;0.60;;;;;;;13.72;56.16;99670.72;2570055;23;20190;-71
2022/04/02 03:16:44;;;;;;;2.13;0.70;;;;;;;13.68;56.03;99667.38;2569839;23;20186;-70
2022/04/02 03:17:45;;;;;;;4.27;0.80;;;;;;;13.71;55.94;99671.97;2570233;23;20156;-71
2022/04/02 03:18:46;;;;;;;1.90;0.60;;;;;;;13.58;56.05;99654.78;2569806;23;20161;-71
2022/04/02 03:19:46;;;;;;;1.93;0.70;;;;;;;13.71;56.36;99669.19;2570236;23;20380;-71
2022/04/02 03:20:47;;;;;;;4.23;0.93;;;;;;;13.71;56.21;99681.13;2569934;23;20559;-71
2022/04/02 03:21:48;;;;;;;1.40;0.67;;;;;;;13.70;56.32;99674.00;2569336;23;20562;-71
2022/04/02 03:22:50;;;;;;;2.40;0.63;;;;;;;13.73;56.27;99680.66;2569771;23;20163;-71
2022/04/02 03:23:51;;;;;;;2.40;0.60;;;;;;;13.57;56.37;99667.91;2569174;23;20157;-71
2022/04/02 03:24:52;;;;;;;3.27;0.83;;;;;;;13.23;56.24;99623.19;2556536;23;20409;-71
2022/04/02 03:25:53;;;;;;;1.70;0.67;;;;;;;13.62;56.23;99686.75;2556955;23;20932;-71
2022/04/02 03:26:54;;;;;;;2.97;0.80;;;;;;;13.60;56.54;99689.25;2556627;23;20743;-71
2022/04/02 03:27:55;;;;;;;1.70;0.77;;;;;;;12.59;56.35;99533.00;2556832;23;20167;-70
2022/04/02 03:28:55;;;;;;;2.47;0.60;;;;;;;13.57;56.23;99690.19;2569914;23;20156;-71
2022/04/02 03:29:56;;;;;;;2.70;0.70;;;;;;;13.56;56.50;99690.66;2569962;23;20174;-71
2022/04/02 03:30:56;;;;;;;1.07;0.50;;;;;;;13.56;56.46;99685.88;2569734;23;20158;-70
2022/04/02 03:31:58;;;;;;;1.33;0.47;;;;;;;13.55;56.49;99684.34;2569310;23;20148;-71
2022/04/02 03:32:58;;;;;;;1.77;0.60;;;;;;;13.58;56.33;99686.16;2569916;23;20202;-71
2022/04/02 03:33:59;;;;;;;0.97;0.47;;;;;;;13.56;56.08;99685.88;2569353;23;20377;-71
2022/04/02 03:34:59;;;;;;;1.17;0.50;;;;;;;13.55;56.30;99691.91;2569883;23;20686;-71
2022/04/02 03:36:00;;;;;;;1.47;0.50;;;;;;;13.56;56.05;99683.09;2569932;23;20156;-70
2022/04/02 03:37:01;;;;;;;2.03;0.77;;;;;;;13.41;56.18;99662.78;2569852;23;20511;-71
2022/04/02 03:38:02;;;;;;;1.93;0.57;;;;;;;13.53;55.90;99689.59;2556623;23;20471;-71
2022/04/02 03:39:02;;;;;;;2.57;0.60;;;;;;;13.51;56.18;99692.09;2556701;23;20164;-71
2022/04/02 03:40:07;;;;;;;2.23;0.60;;;;;;;13.39;56.09;99683.97;2569924;23;20152;-71
2022/04/02 03:41:08;;;;;;;1.40;0.50;;;;;;;12.65;56.44;99575.63;2569801;23;20149;-71
2022/04/02 03:42:09;;;;;;;2.30;0.70;;;;;;;13.47;56.15;99705.41;2569168;23;20406;-71
2022/04/02 03:43:09;;;;;;;1.27;0.50;;;;;;;13.15;56.29;99681.19;2569827;23;20217;-71
2022/04/02 03:44:10;;;;;;;2.33;0.60;;;;;;;13.43;56.07;99701.28;2569224;23;20478;-71
2022/04/02 03:45:13;;;;;;;3.13;0.77;;;;;;;13.17;56.13;99662.00;2569339;23;20271;-71
2022/04/02 03:47:32;;;;;;;1.97;0.60;;;;;;;13.43;55.94;99698.47;2570001;23;20392;-70
2022/04/02 03:48:33;;;;;;;5.53;0.70;;;;;;;13.45;56.13;99701.56;2556553;23;20393;-71
2022/04/02 03:49:34;;;;;;;1.50;0.53;;;;;;;13.43;56.30;99704.81;2556796;23;20491;-71
2022/04/02 03:50:35;;;;;;;1.60;0.40;;;;;;;13.45;55.95;99707.91;2569892;23;20147;-71
2022/04/02 03:51:35;;;;;;;2.30;0.60;;;;;;;12.85;55.94;99615.50;2569111;23;20427;-71
2022/04/02 03:52:36;;;;;;;1.40;0.50;;;;;;;13.39;56.26;99715.38;2569798;23;20144;-71
2022/04/02 03:53:37;;;;;;;1.70;0.80;;;;;;;12.83;56.07;99662.47;2569251;23;20176;-71
2022/04/02 03:54:39;;;;;;;1.90;0.47;;;;;;;13.42;55.97;99713.66;2569860;23;20386;-71
2022/04/02 03:55:39;;;;;;;1.07;0.67;;;;;;;13.43;55.78;99712.41;2569778;23;20161;-71
2022/04/02 03:56:40;;;;;;;1.83;0.50;;;;;;;13.31;56.07;99696.69;2569748;23;20371;-71
2022/04/02 03:57:40;;;;;;;2.33;0.50;;;;;;;13.40;56.16;99716.91;2569949;23;20152;-71
2022/04/02 03:58:41;;;;;;;0.63;0.40;;;;;;;13.40;56.35;99713.34;2569680;23;20156;-71
2022/04/02 03:59:43;;;;;;;1.20;0.53;;;;;;;12.40;55.92;99562.16;2569865;23;20152;-71
2022/04/02 04:00:43;;;;;;;2.90;0.50;;;;;;;13.32;55.92;99699.00;2569695;23;20355;-71
2022/04/02 04:01:44;;;;;;;1.03;0.37;;;;;;;13.27;55.97;99698.91;2569313;23;20375;-71
2022/04/02 04:02:46;;;;;;;1.43;0.50;;;;;;;13.35;56.05;99711.97;2569702;23;20666;-71
2022/04/02 04:03:46;;;;;;;2.33;0.60;;;;;;;13.36;56.13;99716.31;2569292;23;20372;-71
2022/04/02 04:04:47;;;;;;;1.67;0.40;;;;;;;12.00;55.69;99501.34;2569683;23;20466;-71
2022/04/02 04:05:48;;;;;;;1.30;0.40;;;;;;;13.36;56.41;99719.09;2569910;23;20591;-71
2022/04/02 04:06:49;;;;;;;1.23;0.60;;;;;;;13.31;55.84;99722.50;2569554;23;20245;-71
2022/04/02 04:07:49;;;;;;;2.40;0.40;;;;;;;13.18;56.01;99715.63;2569979;23;20402;-71
2022/04/02 04:08:50;;;;;;;0.57;0.40;;;;;;;13.24;56.25;99722.09;2569685;23;20238;-71
2022/04/02 04:09:50;;;;;;;2.70;0.40;;;;;;;12.09;56.18;99539.44;2569938;23;20160;-71
2022/04/02 04:10:51;;;;;;;2.10;0.60;;;;;;;13.13;56.30;99702.38;2569551;23;20156;-71
2022/04/02 04:11:52;;;;;;;2.10;0.50;;;;;;;13.03;55.95;99686.97;2569104;23;20238;-71
2022/04/02 04:12:53;;;;;;;1.83;0.60;;;;;;;13.17;56.05;99719.66;2569676;23;20396;-71
2022/04/02 04:13:59;;;;;;;2.37;0.40;;;;;;;13.09;56.24;99724.00;2569178;23;20602;-71
2022/04/02 04:15:00;;;;;;;1.37;0.50;;;;;;;13.09;56.38;99722.00;2569741;23;20140;-72
2022/04/02 04:16:01;;;;;;;1.47;0.57;;;;;;;13.05;56.15;99726.19;2556524;23;20478;-71
2022/04/02 04:17:02;;;;;;;1.97;0.60;;;;;;;11.79;56.38;99540.44;2556737;23;20227;-71
2022/04/02 04:18:03;;;;;;;0.63;0.40;;;;;;;12.87;56.77;99715.88;2569681;23;20437;-71
2022/04/02 04:19:03;;;;;;;2.17;0.60;;;;;;;12.85;56.58;99714.81;2556418;23;20172;-71
2022/04/02 04:20:04;;;;;;;1.97;0.70;;;;;;;12.92;56.73;99728.38;2556638;23;20279;-71
2022/04/02 04:21:05;;;;;;;1.77;0.77;;;;;;;11.97;56.39;99574.47;2569591;23;20206;-71
2022/04/02 04:22:06;;;;;;;1.27;0.50;;;;;;;12.95;56.49;99727.44;2569000;23;20383;-71
2022/04/02 04:23:07;;;;;;;2.63;0.60;;;;;;;12.94;56.25;99723.91;2569683;23;20152;-71
2022/04/02 04:24:08;;;;;;;2.60;0.60;;;;;;;12.96;56.43;99724.22;2569159;23;20380;-71
2022/04/02 04:25:10;;;;;;;1.80;0.67;;;;;;;13.01;56.45;99720.03;2569268;23;20190;-71
2022/04/02 04:26:13;;;;;;;1.10;0.40;;;;;;;12.98;56.42;99723.75;2569918;23;20542;-71
2022/04/02 04:27:14;;;;;;;4.20;0.97;;;;;;;12.40;56.13;99626.81;2569517;23;20379;-71
2022/04/02 04:28:14;;;;;;;1.20;0.50;;;;;;;12.98;56.53;99718.97;2556456;23;20492;-71
2022/04/02 04:29:15;;;;;;;2.20;0.60;;;;;;;12.97;56.35;99725.75;2556426;23;20176;-71
2022/04/02 04:30:15;;;;;;;2.70;0.80;;;;;;;12.98;55.88;99718.97;2569881;23;20159;-72
2022/04/02 04:31:17;;;;;;;2.20;0.60;;;;;;;12.97;55.66;99703.50;2569472;23;20259;-71
2022/04/02 04:32:18;;;;;;;0.97;0.50;;;;;;;11.72;55.99;99519.34;2555956;23;20164;-71
2022/04/02 04:33:19;;;;;;;2.03;0.60;;;;;;;12.68;55.98;99678.28;2555621;23;20462;-71
2022/04/02 04:34:19;;;;;;;3.03;0.50;;;;;;;12.95;56.09;99721.88;2556455;23;20213;-71
2022/04/02 04:35:20;;;;;;;1.90;0.80;;;;;;;13.01;56.08;99718.00;2556333;23;20156;-71
2022/04/02 04:36:24;;;;;;;3.83;1.00;;;;;;;13.03;55.79;99709.22;2569783;23;20183;-71
2022/04/02 04:37:25;;;;;;;2.67;0.70;;;;;;;12.16;55.81;99595.41;2569564;23;20154;-70
2022/04/02 04:38:26;;;;;;;1.77;0.80;;;;;;;13.11;55.50;99713.97;2569873;23;20396;-71
2022/04/02 04:39:26;;;;;;;1.70;0.70;;;;;;;12.56;55.53;99617.34;2569503;23;20155;-71
2022/04/02 04:40:27;;;;;;;3.10;0.70;;;;;;;13.18;55.62;99710.06;2556503;23;20159;-71
2022/04/02 04:41:28;;;;;;;1.60;0.70;;;;;;;13.23;55.45;99720.56;2555807;23;20141;-71
2022/04/02 04:42:28;;;;;;;2.27;0.70;;;;;;;13.16;55.27;99699.41;2569280;23;20768;-71
2022/04/02 04:43:29;;;;;;;3.07;0.80;;;;;;;13.35;55.23;99713.97;2568831;23;20153;-71
2022/04/02 04:44:30;;;;;;;3.50;0.80;;;;;;;12.15;55.10;99529.22;2569452;23;20654;-71
2022/04/02 04:45:30;;;;;;;3.63;0.73;;;;;;;13.32;54.82;99692.69;2569680;23;20723;-71
2022/04/02 04:46:31;;;;;;;3.57;0.50;;;;;;;13.05;54.77;99640.75;2569587;23;20152;-71
2022/04/02 04:47:31;;;;;;;1.83;0.60;;;;;;;12.35;54.23;99535.75;2569677;23;20232;-71
2022/04/02 04:48:32;;;;;;;2.57;0.70;;;;;;;13.54;54.83;99715.41;2569508;23;20422;-71
2022/04/02 04:49:32;;;;;;;1.60;0.63;;;;;;;13.54;54.57;99716.19;2569674;23;20224;-71
2022/04/02 04:50:34;;;;;;;3.73;0.77;;;;;;;12.77;54.79;99597.63;2569970;23;20155;-71
2022/04/02 04:51:35;;;;;;;1.70;0.67;;;;;;;13.64;54.42;99728.81;2568916;23;20196;-71